KROS

Details ICAO KROS
Name RUSH CITY RGNL
Region United States
Timezone America/Chicago (UTC-5.0)
Plans Departing 2
Arriving 4
Stats Elevation 923 ft / 281 m (AMSL)
Location 45.698443° -92.953254°
Runways 1
Magnetic Variation 0.160° W
Sunrise 2018-05-23 10:33:47 UTC / 2018-05-23 05:33:47 Local
Sunset 2018-05-24 01:46:15 UTC / 2018-05-23 20:46:15 Local
Advertisement - Login to hide

Runways

ID Width Length Bearing (true) Bearing (mag) Surface Threshold Offset Overrun Length
16 75 ft / 23 m 4,402 ft / 1,342 m 160.32° 160.48° Asphalt 0 ft / 0 m 0 ft / 0 m
34 75 ft / 23 m 4,402 ft / 1,342 m 340.33° 340.49° Asphalt 0 ft / 0 m 0 ft / 0 m

Map

Weather


0- 5 10 15 20 25 30 35+ Temperature / ° C

Clouds and Precipitation
Forecast for 2018-05-23 18:00 UTC. Updated 2 hours ago

Ground ~20,000 ft ~40,000 ft Winds

METAR

KROS 231936Z AUTO 15008KT 10SM CLR 25/16 A3010 RMK AO2 T02500159

TAF

Not found

Frequencies

Unicom 122.90 MHz CTAF
Warning: Do not use this data for real-world aviation or navigation. No guarantee of current accuracy is given.